JEF22 ESGG-LFPB
Flight info
| Callsign | JEF22 |
|---|---|
| Flight time | 1h 56m |
| Altitude | 40000 |
| Route | VADIN M852 ALS N872 NIK UY131 NILEM DCT MOPIL |
| Aircraft | CL60/M-SBDE1E2E3FGHIJ1J3J4J5J7M3P2RWXYZ/LB1V1D1 |
Departure
| Time | 2026-04-15 09:04 |
|---|---|
| Airport | Göteborg Landvetter Airport (ESGG) |
Arrival
| Time | 2026-04-15 11:00 |
|---|---|
| Airport | Paris-Le Bourget International Airport (LFPB) |
| Time | Latitude | Longitude | Altitude | Speed | Heading |
|---|---|---|---|---|---|
| 2026-04-15 08:30 | 57.66305 | 12.28963 | 517 ft | 0 kts | 116° |
| 2026-04-15 08:59 | 57.66305 | 12.28964 | 517 ft | 0 kts | 118° |
| 2026-04-15 08:59 | 57.66292 | 12.28949 | 517 ft | 1 kts | 263° |
| 2026-04-15 08:59 | 57.66311 | 12.28855 | 517 ft | 9 kts | 303° |
| 2026-04-15 09:00 | 57.66387 | 12.28839 | 517 ft | 13 kts | 16° |
| 2026-04-15 09:00 | 57.66478 | 12.28924 | 517 ft | 16 kts | 31° |
| 2026-04-15 09:00 | 57.66576 | 12.28964 | 517 ft | 15 kts | 24° |
| 2026-04-15 09:00 | 57.66620 | 12.28921 | 516 ft | 11 kts | 296° |
| 2026-04-15 09:01 | 57.66695 | 12.28868 | 516 ft | 15 kts | 27° |
| 2026-04-15 09:01 | 57.66814 | 12.28974 | 516 ft | 22 kts | 26° |
| 2026-04-15 09:01 | 57.66964 | 12.29112 | 517 ft | 25 kts | 25° |
| 2026-04-15 09:01 | 57.67137 | 12.29270 | 517 ft | 28 kts | 24° |
| 2026-04-15 09:02 | 57.67314 | 12.29432 | 518 ft | 29 kts | 26° |
| 2026-04-15 09:02 | 57.67417 | 12.29438 | 518 ft | 15 kts | 309° |
| 2026-04-15 09:02 | 57.67458 | 12.29275 | 517 ft | 8 kts | 285° |
| 2026-04-15 09:02 | 57.67460 | 12.29238 | 517 ft | 0 kts | 271° |
| 2026-04-15 09:03 | 57.67455 | 12.29174 | 517 ft | 8 kts | 261° |
| 2026-04-15 09:03 | 57.67433 | 12.29038 | 517 ft | 12 kts | 223° |
| 2026-04-15 09:03 | 57.67249 | 12.28860 | 516 ft | 75 kts | 205° |
| 2026-04-15 09:03 | 57.66471 | 12.28154 | 617 ft | 158 kts | 206° |
| 2026-04-15 09:04 | 57.65411 | 12.27195 | 1323 ft | 187 kts | 205° |
| 2026-04-15 09:04 | 57.64129 | 12.26013 | 1955 ft | 227 kts | 206° |
| 2026-04-15 09:04 | 57.62630 | 12.24646 | 2808 ft | 252 kts | 206° |
| 2026-04-15 09:04 | 57.61026 | 12.23184 | 3823 ft | 263 kts | 204° |
| 2026-04-15 09:05 | 57.59239 | 12.22446 | 4983 ft | 275 kts | 185° |
| 2026-04-15 09:05 | 57.57365 | 12.22203 | 6351 ft | 280 kts | 184° |
| 2026-04-15 09:05 | 57.55430 | 12.21946 | 7716 ft | 286 kts | 184° |
| 2026-04-15 09:05 | 57.53447 | 12.21668 | 9011 ft | 292 kts | 184° |
| 2026-04-15 09:06 | 57.51417 | 12.21366 | 10246 ft | 300 kts | 184° |
| 2026-04-15 09:06 | 57.49302 | 12.21035 | 11101 ft | 320 kts | 185° |
| 2026-04-15 09:06 | 57.47008 | 12.20658 | 11819 ft | 342 kts | 185° |
| 2026-04-15 09:06 | 57.44607 | 12.19925 | 12603 ft | 359 kts | 198° |
| 2026-04-15 09:07 | 57.42435 | 12.17730 | 13509 ft | 367 kts | 221° |
| 2026-04-15 09:07 | 57.40603 | 12.14413 | 14445 ft | 374 kts | 227° |
| 2026-04-15 09:07 | 57.38759 | 12.10918 | 15357 ft | 382 kts | 227° |
| 2026-04-15 09:07 | 57.36896 | 12.07410 | 16334 ft | 387 kts | 227° |
| 2026-04-15 09:08 | 57.35015 | 12.03875 | 17273 ft | 390 kts | 229° |
| 2026-04-15 09:08 | 57.33120 | 12.00318 | 18188 ft | 393 kts | 229° |
| 2026-04-15 09:08 | 57.31210 | 11.96741 | 19038 ft | 397 kts | 229° |
| 2026-04-15 09:08 | 57.29259 | 11.93093 | 19816 ft | 403 kts | 230° |
| 2026-04-15 09:09 | 57.27282 | 11.89399 | 20516 ft | 410 kts | 230° |
| 2026-04-15 09:09 | 57.25287 | 11.85682 | 21280 ft | 413 kts | 230° |
| 2026-04-15 09:09 | 57.23255 | 11.81902 | 21972 ft | 418 kts | 231° |
| 2026-04-15 09:09 | 57.21214 | 11.78113 | 22637 ft | 422 kts | 231° |
| 2026-04-15 09:10 | 57.19156 | 11.74299 | 23309 ft | 425 kts | 232° |
| 2026-04-15 09:10 | 57.17059 | 11.70416 | 23882 ft | 430 kts | 232° |
| 2026-04-15 09:10 | 57.14943 | 11.66592 | 24541 ft | 435 kts | 229° |
| 2026-04-15 09:10 | 57.12416 | 11.63355 | 25122 ft | 450 kts | 213° |
| 2026-04-15 09:11 | 57.09551 | 11.60993 | 25599 ft | 459 kts | 209° |
| 2026-04-15 09:11 | 57.06620 | 11.58709 | 26173 ft | 462 kts | 209° |
| 2026-04-15 09:11 | 57.03660 | 11.56394 | 26690 ft | 465 kts | 209° |
| 2026-04-15 09:11 | 57.00673 | 11.54061 | 27209 ft | 467 kts | 209° |
| 2026-04-15 09:12 | 56.97670 | 11.51721 | 27714 ft | 469 kts | 209° |
| 2026-04-15 09:12 | 56.94689 | 11.49401 | 28227 ft | 470 kts | 209° |
| 2026-04-15 09:12 | 56.91646 | 11.47036 | 28634 ft | 474 kts | 209° |
| 2026-04-15 09:12 | 56.88582 | 11.44657 | 29007 ft | 478 kts | 209° |
| 2026-04-15 09:13 | 56.85499 | 11.42269 | 29369 ft | 480 kts | 208° |
| 2026-04-15 09:13 | 56.82353 | 11.39836 | 29806 ft | 481 kts | 209° |
| 2026-04-15 09:13 | 56.79280 | 11.37465 | 30266 ft | 480 kts | 209° |
| 2026-04-15 09:13 | 56.76188 | 11.35084 | 30724 ft | 479 kts | 210° |
| 2026-04-15 09:14 | 56.73123 | 11.32727 | 31090 ft | 481 kts | 209° |
| 2026-04-15 09:14 | 56.70014 | 11.30340 | 31513 ft | 481 kts | 209° |
| 2026-04-15 09:14 | 56.66886 | 11.27944 | 31935 ft | 480 kts | 210° |
| 2026-04-15 09:14 | 56.63804 | 11.25586 | 32358 ft | 480 kts | 210° |
| 2026-04-15 09:15 | 56.60699 | 11.23215 | 32713 ft | 480 kts | 210° |
| 2026-04-15 09:15 | 56.57637 | 11.20880 | 33107 ft | 480 kts | 210° |
| 2026-04-15 09:15 | 56.54500 | 11.18494 | 33534 ft | 478 kts | 211° |
| 2026-04-15 09:15 | 56.51350 | 11.16100 | 33887 ft | 478 kts | 210° |
| 2026-04-15 09:16 | 56.48249 | 11.13746 | 34145 ft | 479 kts | 211° |
| 2026-04-15 09:16 | 56.45164 | 11.11410 | 34452 ft | 479 kts | 210° |
| 2026-04-15 09:16 | 56.42091 | 11.09087 | 34685 ft | 479 kts | 210° |
| 2026-04-15 09:16 | 56.38968 | 11.06730 | 34949 ft | 479 kts | 209° |
| 2026-04-15 09:17 | 56.35879 | 11.04404 | 35216 ft | 477 kts | 209° |
| 2026-04-15 09:17 | 56.32790 | 11.02081 | 35480 ft | 477 kts | 209° |
| 2026-04-15 09:17 | 56.29735 | 10.99789 | 35826 ft | 475 kts | 208° |
| 2026-04-15 09:17 | 56.26688 | 10.97508 | 36219 ft | 472 kts | 208° |
| 2026-04-15 09:18 | 56.23657 | 10.95240 | 36552 ft | 470 kts | 208° |
| 2026-04-15 09:18 | 56.20658 | 10.92999 | 36829 ft | 470 kts | 208° |
| 2026-04-15 09:18 | 56.17627 | 10.90737 | 37069 ft | 471 kts | 208° |
| 2026-04-15 09:18 | 56.14600 | 10.88483 | 37319 ft | 470 kts | 207° |
| 2026-04-15 09:19 | 56.11582 | 10.86241 | 37635 ft | 468 kts | 207° |
| 2026-04-15 09:19 | 56.08574 | 10.84010 | 37910 ft | 467 kts | 207° |
| 2026-04-15 09:19 | 56.05576 | 10.81791 | 38218 ft | 465 kts | 206° |
| 2026-04-15 09:19 | 56.02609 | 10.79598 | 38473 ft | 464 kts | 206° |
| 2026-04-15 09:20 | 55.99639 | 10.77406 | 38704 ft | 463 kts | 206° |
| 2026-04-15 09:20 | 55.96645 | 10.75200 | 38891 ft | 463 kts | 206° |
| 2026-04-15 09:20 | 55.93696 | 10.73030 | 39088 ft | 463 kts | 206° |
| 2026-04-15 09:20 | 55.90704 | 10.70832 | 39258 ft | 463 kts | 206° |
| 2026-04-15 09:21 | 55.87674 | 10.68611 | 39396 ft | 464 kts | 206° |
| 2026-04-15 09:21 | 55.84708 | 10.66439 | 39517 ft | 464 kts | 206° |
| 2026-04-15 09:21 | 55.81697 | 10.64239 | 39666 ft | 465 kts | 206° |
| 2026-04-15 09:21 | 55.78700 | 10.62053 | 39779 ft | 465 kts | 206° |
| 2026-04-15 09:22 | 55.75714 | 10.59878 | 39915 ft | 465 kts | 206° |
| 2026-04-15 09:22 | 55.72755 | 10.57727 | 40032 ft | 465 kts | 206° |
| 2026-04-15 09:22 | 55.69768 | 10.55559 | 40176 ft | 464 kts | 206° |
| 2026-04-15 09:22 | 55.66770 | 10.53386 | 40255 ft | 465 kts | 206° |
| 2026-04-15 09:23 | 55.60765 | 10.49044 | 40257 ft | 470 kts | 206° |
| 2026-04-15 09:23 | 55.54676 | 10.44656 | 40258 ft | 475 kts | 206° |
| 2026-04-15 09:24 | 55.48563 | 10.40266 | 40260 ft | 477 kts | 206° |
| 2026-04-15 09:24 | 55.42425 | 10.35875 | 40261 ft | 478 kts | 206° |
| 2026-04-15 09:25 | 55.36248 | 10.31470 | 40257 ft | 477 kts | 205° |
| 2026-04-15 09:25 | 55.30129 | 10.27121 | 40247 ft | 477 kts | 205° |
| 2026-04-15 09:26 | 55.23988 | 10.22769 | 40232 ft | 478 kts | 205° |
| 2026-04-15 09:26 | 55.17839 | 10.18428 | 40243 ft | 478 kts | 206° |
| 2026-04-15 09:27 | 55.11647 | 10.14070 | 40243 ft | 478 kts | 205° |
| 2026-04-15 09:27 | 55.05512 | 10.09766 | 40245 ft | 479 kts | 205° |
| 2026-04-15 09:28 | 54.99320 | 10.05437 | 40242 ft | 479 kts | 205° |
| 2026-04-15 09:28 | 54.93304 | 10.00702 | 40240 ft | 474 kts | 214° |
| 2026-04-15 09:29 | 54.88109 | 9.93946 | 40248 ft | 465 kts | 229° |
| 2026-04-15 09:29 | 54.83831 | 9.85628 | 40248 ft | 459 kts | 236° |
| 2026-04-15 09:30 | 54.80110 | 9.76710 | 40239 ft | 456 kts | 240° |
| 2026-04-15 09:30 | 54.76457 | 9.67770 | 40238 ft | 456 kts | 240° |
| 2026-04-15 09:31 | 54.72797 | 9.58854 | 40256 ft | 454 kts | 240° |
| 2026-04-15 09:31 | 54.69147 | 9.49997 | 40220 ft | 453 kts | 240° |
| 2026-04-15 09:32 | 54.65490 | 9.41160 | 40249 ft | 452 kts | 240° |
| 2026-04-15 09:32 | 54.61840 | 9.32376 | 40225 ft | 451 kts | 239° |
| 2026-04-15 09:33 | 54.58193 | 9.23632 | 40223 ft | 450 kts | 239° |
| 2026-04-15 09:33 | 54.54534 | 9.14892 | 40242 ft | 451 kts | 240° |
| 2026-04-15 09:34 | 54.50883 | 9.06204 | 40235 ft | 449 kts | 240° |
| 2026-04-15 09:34 | 54.47234 | 8.97551 | 40244 ft | 448 kts | 240° |
| 2026-04-15 09:35 | 54.43572 | 8.88897 | 40220 ft | 447 kts | 240° |
| 2026-04-15 09:35 | 54.39914 | 8.80288 | 40234 ft | 446 kts | 240° |
| 2026-04-15 09:36 | 54.36282 | 8.71764 | 40218 ft | 446 kts | 240° |
| 2026-04-15 09:36 | 54.32618 | 8.63198 | 40217 ft | 445 kts | 240° |
| 2026-04-15 09:37 | 54.28961 | 8.54676 | 40206 ft | 446 kts | 240° |
| 2026-04-15 09:37 | 54.25323 | 8.46228 | 40225 ft | 445 kts | 240° |
| 2026-04-15 09:38 | 54.21409 | 8.37980 | 40221 ft | 453 kts | 231° |
| 2026-04-15 09:38 | 54.16845 | 8.30570 | 40224 ft | 454 kts | 230° |
| 2026-04-15 09:39 | 54.12258 | 8.23154 | 40204 ft | 455 kts | 230° |
| 2026-04-15 09:39 | 54.07665 | 8.15749 | 40212 ft | 455 kts | 230° |
| 2026-04-15 09:40 | 54.03087 | 8.08374 | 40215 ft | 454 kts | 230° |
| 2026-04-15 09:40 | 53.98501 | 8.01009 | 40220 ft | 454 kts | 230° |
| 2026-04-15 09:41 | 53.93906 | 7.93657 | 40215 ft | 454 kts | 230° |
| 2026-04-15 09:41 | 53.89337 | 7.86368 | 40214 ft | 454 kts | 230° |
| 2026-04-15 09:42 | 53.84719 | 7.79024 | 40211 ft | 454 kts | 230° |
| 2026-04-15 09:42 | 53.80122 | 7.71739 | 40209 ft | 454 kts | 230° |
| 2026-04-15 09:43 | 53.75505 | 7.64444 | 40211 ft | 452 kts | 230° |
| 2026-04-15 09:43 | 53.70929 | 7.57236 | 40211 ft | 451 kts | 230° |
| 2026-04-15 09:44 | 53.66368 | 7.50074 | 40211 ft | 450 kts | 230° |
| 2026-04-15 09:44 | 53.61786 | 7.42901 | 40209 ft | 450 kts | 230° |
| 2026-04-15 09:45 | 53.57210 | 7.35759 | 40212 ft | 450 kts | 230° |
| 2026-04-15 09:45 | 53.52612 | 7.28604 | 40211 ft | 450 kts | 229° |
| 2026-04-15 09:46 | 53.48003 | 7.21455 | 40213 ft | 450 kts | 229° |
| 2026-04-15 09:46 | 53.43419 | 7.14368 | 40209 ft | 449 kts | 229° |
| 2026-04-15 09:47 | 53.38826 | 7.07288 | 40210 ft | 448 kts | 229° |
| 2026-04-15 09:47 | 53.34286 | 7.00303 | 40196 ft | 447 kts | 230° |
| 2026-04-15 09:48 | 53.30138 | 6.92720 | 40194 ft | 441 kts | 235° |
| 2026-04-15 09:48 | 53.26105 | 6.85024 | 40191 ft | 441 kts | 235° |
| 2026-04-15 09:49 | 53.22052 | 6.77321 | 40191 ft | 441 kts | 235° |
| 2026-04-15 09:49 | 53.18017 | 6.69682 | 40193 ft | 440 kts | 235° |
| 2026-04-15 09:50 | 53.14094 | 6.62132 | 40198 ft | 438 kts | 236° |
| 2026-04-15 09:50 | 53.10141 | 6.54393 | 40198 ft | 438 kts | 236° |
| 2026-04-15 09:51 | 53.06167 | 6.46643 | 40190 ft | 438 kts | 236° |
| 2026-04-15 09:51 | 53.02206 | 6.38946 | 40188 ft | 438 kts | 236° |
| 2026-04-15 09:52 | 52.98258 | 6.31298 | 40187 ft | 438 kts | 235° |
| 2026-04-15 09:52 | 52.94302 | 6.23660 | 40183 ft | 438 kts | 234° |
| 2026-04-15 09:53 | 52.90332 | 6.16018 | 40174 ft | 438 kts | 234° |
| 2026-04-15 09:53 | 52.86350 | 6.08379 | 40175 ft | 437 kts | 234° |
| 2026-04-15 09:54 | 52.82360 | 6.00748 | 40165 ft | 437 kts | 234° |
| 2026-04-15 09:54 | 52.78392 | 5.93182 | 40162 ft | 437 kts | 234° |
| 2026-04-15 09:55 | 52.74398 | 5.85592 | 40144 ft | 437 kts | 234° |
| 2026-04-15 09:55 | 52.70428 | 5.78074 | 40142 ft | 436 kts | 234° |
| 2026-04-15 09:56 | 52.66446 | 5.70562 | 40155 ft | 435 kts | 234° |
| 2026-04-15 09:57 | 52.60506 | 5.59397 | 40161 ft | 434 kts | 234° |
| 2026-04-15 09:57 | 52.56518 | 5.51928 | 40171 ft | 432 kts | 234° |
| 2026-04-15 09:58 | 52.52573 | 5.44561 | 40178 ft | 431 kts | 234° |
| 2026-04-15 09:58 | 52.48622 | 5.37206 | 40173 ft | 432 kts | 234° |
| 2026-04-15 09:59 | 52.44625 | 5.29782 | 40179 ft | 432 kts | 233° |
| 2026-04-15 09:59 | 52.40625 | 5.22375 | 40172 ft | 431 kts | 233° |
| 2026-04-15 10:00 | 52.36660 | 5.15057 | 40163 ft | 431 kts | 232° |
| 2026-04-15 10:00 | 52.32161 | 5.08566 | 40169 ft | 438 kts | 219° |
| 2026-04-15 10:01 | 52.26759 | 5.03840 | 40174 ft | 444 kts | 211° |
| 2026-04-15 10:01 | 52.21197 | 4.99415 | 40172 ft | 444 kts | 211° |
| 2026-04-15 10:02 | 52.15685 | 4.95040 | 40171 ft | 444 kts | 211° |
| 2026-04-15 10:02 | 52.10132 | 4.90645 | 40168 ft | 443 kts | 211° |
| 2026-04-15 10:03 | 52.04566 | 4.86253 | 40173 ft | 443 kts | 211° |
| 2026-04-15 10:03 | 51.99055 | 4.81917 | 40168 ft | 442 kts | 211° |
| 2026-04-15 10:04 | 51.93485 | 4.77546 | 40168 ft | 442 kts | 211° |
| 2026-04-15 10:04 | 51.87933 | 4.73202 | 40169 ft | 441 kts | 211° |
| 2026-04-15 10:05 | 51.82378 | 4.68867 | 40165 ft | 441 kts | 211° |
| 2026-04-15 10:05 | 51.76828 | 4.64545 | 40166 ft | 441 kts | 211° |
| 2026-04-15 10:06 | 51.71306 | 4.60256 | 40170 ft | 442 kts | 211° |
| 2026-04-15 10:06 | 51.65778 | 4.55975 | 40166 ft | 441 kts | 211° |
| 2026-04-15 10:07 | 51.60236 | 4.51702 | 40162 ft | 441 kts | 211° |
| 2026-04-15 10:07 | 51.54689 | 4.47436 | 40163 ft | 440 kts | 211° |
| 2026-04-15 10:08 | 51.49165 | 4.43199 | 40177 ft | 440 kts | 211° |
| 2026-04-15 10:08 | 51.43655 | 4.38984 | 40172 ft | 440 kts | 210° |
| 2026-04-15 10:09 | 51.38100 | 4.34749 | 40175 ft | 440 kts | 210° |
| 2026-04-15 10:09 | 51.32554 | 4.30535 | 40177 ft | 440 kts | 210° |
| 2026-04-15 10:10 | 51.27017 | 4.26332 | 40178 ft | 439 kts | 210° |
| 2026-04-15 10:10 | 51.21488 | 4.22141 | 40178 ft | 439 kts | 209° |
| 2026-04-15 10:11 | 51.15687 | 4.18854 | 40180 ft | 446 kts | 196° |
| 2026-04-15 10:11 | 51.09463 | 4.17841 | 40181 ft | 453 kts | 187° |
| 2026-04-15 10:12 | 51.03162 | 4.17368 | 40119 ft | 455 kts | 187° |
| 2026-04-15 10:12 | 50.99969 | 4.17124 | 39602 ft | 461 kts | 187° |
| 2026-04-15 10:12 | 50.96757 | 4.16877 | 39089 ft | 457 kts | 187° |
| 2026-04-15 10:12 | 50.93599 | 4.16636 | 38606 ft | 455 kts | 187° |
| 2026-04-15 10:13 | 50.90453 | 4.16394 | 38134 ft | 454 kts | 187° |
| 2026-04-15 10:13 | 50.87398 | 4.16159 | 37673 ft | 454 kts | 187° |
| 2026-04-15 10:13 | 50.84281 | 4.15920 | 37199 ft | 454 kts | 186° |
| 2026-04-15 10:13 | 50.81089 | 4.15678 | 36701 ft | 454 kts | 186° |
| 2026-04-15 10:14 | 50.77934 | 4.15442 | 36205 ft | 454 kts | 186° |
| 2026-04-15 10:14 | 50.74791 | 4.15207 | 35701 ft | 455 kts | 186° |
| 2026-04-15 10:14 | 50.71635 | 4.14972 | 35206 ft | 456 kts | 186° |
| 2026-04-15 10:14 | 50.68467 | 4.14735 | 34696 ft | 457 kts | 186° |
| 2026-04-15 10:15 | 50.65279 | 4.14498 | 34190 ft | 458 kts | 186° |
| 2026-04-15 10:15 | 50.62085 | 4.14260 | 33703 ft | 459 kts | 186° |
| 2026-04-15 10:15 | 50.58930 | 4.14026 | 33178 ft | 460 kts | 186° |
| 2026-04-15 10:15 | 50.55710 | 4.13788 | 32670 ft | 462 kts | 186° |
| 2026-04-15 10:16 | 50.52499 | 4.13550 | 32157 ft | 463 kts | 186° |
| 2026-04-15 10:16 | 50.49278 | 4.13312 | 31645 ft | 464 kts | 186° |
| 2026-04-15 10:16 | 50.46057 | 4.13074 | 31129 ft | 466 kts | 185° |
| 2026-04-15 10:16 | 50.42833 | 4.12836 | 30614 ft | 467 kts | 185° |
| 2026-04-15 10:17 | 50.39614 | 4.12600 | 30102 ft | 465 kts | 185° |
| 2026-04-15 10:17 | 50.36379 | 4.12363 | 29588 ft | 462 kts | 185° |
| 2026-04-15 10:17 | 50.33203 | 4.12131 | 29084 ft | 459 kts | 185° |
| 2026-04-15 10:17 | 50.30015 | 4.11898 | 28575 ft | 456 kts | 185° |
| 2026-04-15 10:18 | 50.26884 | 4.11666 | 28077 ft | 452 kts | 185° |
| 2026-04-15 10:18 | 50.23732 | 4.11431 | 27572 ft | 448 kts | 185° |
| 2026-04-15 10:18 | 50.20670 | 4.11203 | 27084 ft | 445 kts | 185° |
| 2026-04-15 10:18 | 50.17569 | 4.10973 | 26585 ft | 442 kts | 185° |
| 2026-04-15 10:19 | 50.14532 | 4.10747 | 26098 ft | 439 kts | 185° |
| 2026-04-15 10:19 | 50.11486 | 4.10516 | 25617 ft | 435 kts | 185° |
| 2026-04-15 10:19 | 50.08498 | 4.10289 | 25152 ft | 432 kts | 185° |
| 2026-04-15 10:19 | 50.05506 | 4.10062 | 24692 ft | 429 kts | 185° |
| 2026-04-15 10:20 | 50.02553 | 4.09839 | 24232 ft | 426 kts | 185° |
| 2026-04-15 10:20 | 49.99587 | 4.09614 | 23768 ft | 423 kts | 185° |
| 2026-04-15 10:20 | 49.96653 | 4.09393 | 23313 ft | 419 kts | 185° |
| 2026-04-15 10:20 | 49.93784 | 4.09176 | 22864 ft | 417 kts | 185° |
| 2026-04-15 10:21 | 49.90891 | 4.08958 | 22417 ft | 414 kts | 184° |
| 2026-04-15 10:21 | 49.88133 | 4.08751 | 21987 ft | 411 kts | 185° |
| 2026-04-15 10:21 | 49.85376 | 4.08544 | 21557 ft | 409 kts | 185° |
| 2026-04-15 10:21 | 49.82512 | 4.08329 | 21109 ft | 407 kts | 185° |
| 2026-04-15 10:22 | 49.79699 | 4.08117 | 20674 ft | 404 kts | 185° |
| 2026-04-15 10:22 | 49.76915 | 4.07909 | 20244 ft | 402 kts | 185° |
| 2026-04-15 10:22 | 49.74128 | 4.07700 | 19811 ft | 400 kts | 185° |
| 2026-04-15 10:22 | 49.71328 | 4.07491 | 19369 ft | 397 kts | 185° |
| 2026-04-15 10:23 | 49.68587 | 4.07287 | 18945 ft | 394 kts | 184° |
| 2026-04-15 10:23 | 49.65868 | 4.07084 | 18520 ft | 392 kts | 185° |
| 2026-04-15 10:23 | 49.63157 | 4.06883 | 18096 ft | 390 kts | 184° |
| 2026-04-15 10:23 | 49.60471 | 4.06683 | 17677 ft | 387 kts | 185° |
| 2026-04-15 10:24 | 49.57800 | 4.06485 | 17267 ft | 385 kts | 184° |
| 2026-04-15 10:24 | 49.55108 | 4.06286 | 16849 ft | 383 kts | 184° |
| 2026-04-15 10:24 | 49.52461 | 4.06090 | 16433 ft | 380 kts | 184° |
| 2026-04-15 10:24 | 49.49836 | 4.05896 | 16018 ft | 378 kts | 184° |
| 2026-04-15 10:25 | 49.47226 | 4.05702 | 15611 ft | 375 kts | 184° |
| 2026-04-15 10:25 | 49.44626 | 4.05509 | 15206 ft | 372 kts | 184° |
| 2026-04-15 10:25 | 49.42094 | 4.04907 | 14760 ft | 368 kts | 198° |
| 2026-04-15 10:25 | 49.39819 | 4.03260 | 14342 ft | 360 kts | 215° |
| 2026-04-15 10:26 | 49.37995 | 4.00714 | 14208 ft | 358 kts | 231° |
| 2026-04-15 10:26 | 49.36660 | 3.97494 | 14185 ft | 358 kts | 242° |
| 2026-04-15 10:26 | 49.35511 | 3.94070 | 14187 ft | 359 kts | 243° |
| 2026-04-15 10:26 | 49.34371 | 3.90655 | 13893 ft | 363 kts | 243° |
| 2026-04-15 10:27 | 49.33229 | 3.87239 | 13446 ft | 357 kts | 243° |
| 2026-04-15 10:27 | 49.32096 | 3.83853 | 12994 ft | 353 kts | 243° |
| 2026-04-15 10:27 | 49.30983 | 3.80527 | 12547 ft | 351 kts | 243° |
| 2026-04-15 10:27 | 49.29887 | 3.77256 | 12102 ft | 344 kts | 243° |
| 2026-04-15 10:28 | 49.28807 | 3.74033 | 11663 ft | 334 kts | 243° |
| 2026-04-15 10:28 | 49.27781 | 3.70976 | 11416 ft | 319 kts | 243° |
| 2026-04-15 10:28 | 49.26848 | 3.67939 | 11146 ft | 316 kts | 251° |
| 2026-04-15 10:28 | 49.26324 | 3.64669 | 10961 ft | 309 kts | 258° |
| 2026-04-15 10:29 | 49.25894 | 3.61571 | 10867 ft | 293 kts | 257° |
| 2026-04-15 10:29 | 49.25470 | 3.58577 | 10717 ft | 283 kts | 257° |
| 2026-04-15 10:29 | 49.25052 | 3.55621 | 10584 ft | 283 kts | 257° |
| 2026-04-15 10:29 | 49.24632 | 3.52673 | 10391 ft | 285 kts | 257° |
| 2026-04-15 10:30 | 49.24210 | 3.49712 | 10096 ft | 280 kts | 257° |
| 2026-04-15 10:30 | 49.23801 | 3.46846 | 10018 ft | 281 kts | 257° |
| 2026-04-15 10:30 | 49.23381 | 3.43918 | 9873 ft | 279 kts | 257° |
| 2026-04-15 10:30 | 49.22969 | 3.41047 | 9741 ft | 279 kts | 257° |
| 2026-04-15 10:31 | 49.22550 | 3.38136 | 9613 ft | 279 kts | 257° |
| 2026-04-15 10:31 | 49.22132 | 3.35237 | 9483 ft | 279 kts | 257° |
| 2026-04-15 10:31 | 49.21717 | 3.32361 | 9350 ft | 278 kts | 256° |
| 2026-04-15 10:31 | 49.21299 | 3.29480 | 9210 ft | 277 kts | 257° |
| 2026-04-15 10:32 | 49.20880 | 3.26593 | 9082 ft | 276 kts | 257° |
| 2026-04-15 10:32 | 49.20467 | 3.23748 | 8952 ft | 276 kts | 257° |
| 2026-04-15 10:32 | 49.20047 | 3.20867 | 8822 ft | 275 kts | 257° |
| 2026-04-15 10:32 | 49.19633 | 3.18030 | 8689 ft | 274 kts | 257° |
| 2026-04-15 10:33 | 49.19219 | 3.15200 | 8559 ft | 274 kts | 257° |
| 2026-04-15 10:33 | 49.18800 | 3.12343 | 8429 ft | 274 kts | 256° |
| 2026-04-15 10:33 | 49.18385 | 3.09512 | 8300 ft | 273 kts | 257° |
| 2026-04-15 10:33 | 49.17966 | 3.06669 | 8172 ft | 272 kts | 257° |
| 2026-04-15 10:34 | 49.17610 | 3.04252 | 8056 ft | 272 kts | 257° |
| 2026-04-15 10:34 | 49.17193 | 3.01431 | 7935 ft | 271 kts | 257° |
| 2026-04-15 10:34 | 49.16777 | 2.98625 | 7790 ft | 270 kts | 256° |
| 2026-04-15 10:34 | 49.16363 | 2.95834 | 7679 ft | 269 kts | 257° |
| 2026-04-15 10:35 | 49.15950 | 2.93053 | 7543 ft | 268 kts | 257° |
| 2026-04-15 10:35 | 49.15541 | 2.90296 | 7416 ft | 267 kts | 257° |
| 2026-04-15 10:35 | 49.15128 | 2.87522 | 7297 ft | 267 kts | 257° |
| 2026-04-15 10:35 | 49.14719 | 2.84780 | 7163 ft | 266 kts | 257° |
| 2026-04-15 10:36 | 49.14305 | 2.82014 | 7042 ft | 266 kts | 257° |
| 2026-04-15 10:36 | 49.13891 | 2.79251 | 6925 ft | 266 kts | 257° |
| 2026-04-15 10:36 | 49.13480 | 2.76509 | 6797 ft | 266 kts | 257° |
| 2026-04-15 10:36 | 49.13069 | 2.73773 | 6685 ft | 265 kts | 257° |
| 2026-04-15 10:37 | 49.12653 | 2.71007 | 6545 ft | 264 kts | 257° |
| 2026-04-15 10:37 | 49.12242 | 2.68284 | 6419 ft | 264 kts | 257° |
| 2026-04-15 10:37 | 49.11830 | 2.65558 | 6282 ft | 262 kts | 257° |
| 2026-04-15 10:37 | 49.11420 | 2.62846 | 6196 ft | 261 kts | 256° |
| 2026-04-15 10:38 | 49.11011 | 2.60149 | 6054 ft | 261 kts | 257° |
| 2026-04-15 10:38 | 49.10761 | 2.57394 | 5936 ft | 261 kts | 267° |
| 2026-04-15 10:38 | 49.10720 | 2.54640 | 5805 ft | 261 kts | 268° |
| 2026-04-15 10:38 | 49.10676 | 2.51860 | 5686 ft | 261 kts | 268° |
| 2026-04-15 10:39 | 49.10631 | 2.49086 | 5556 ft | 261 kts | 267° |
| 2026-04-15 10:39 | 49.10585 | 2.46359 | 5435 ft | 260 kts | 267° |
| 2026-04-15 10:39 | 49.10537 | 2.43596 | 5308 ft | 259 kts | 267° |
| 2026-04-15 10:39 | 49.10486 | 2.40851 | 5186 ft | 259 kts | 266° |
| 2026-04-15 10:40 | 49.10068 | 2.38192 | 5055 ft | 256 kts | 242° |
| 2026-04-15 10:40 | 49.09030 | 2.36017 | 4933 ft | 255 kts | 230° |
| 2026-04-15 10:40 | 49.07882 | 2.33938 | 4805 ft | 255 kts | 229° |
| 2026-04-15 10:40 | 49.06755 | 2.31880 | 4687 ft | 255 kts | 229° |
| 2026-04-15 10:41 | 49.05608 | 2.29787 | 4564 ft | 254 kts | 230° |
| 2026-04-15 10:41 | 49.04480 | 2.27730 | 4449 ft | 254 kts | 229° |
| 2026-04-15 10:41 | 49.03341 | 2.25654 | 4326 ft | 254 kts | 229° |
| 2026-04-15 10:41 | 49.02226 | 2.23621 | 4210 ft | 244 kts | 229° |
| 2026-04-15 10:42 | 49.01157 | 2.21675 | 4101 ft | 233 kts | 229° |
| 2026-04-15 10:42 | 49.00120 | 2.19788 | 3985 ft | 231 kts | 229° |
| 2026-04-15 10:42 | 48.99094 | 2.17923 | 3873 ft | 228 kts | 229° |
| 2026-04-15 10:42 | 48.98106 | 2.16127 | 3775 ft | 215 kts | 229° |
| 2026-04-15 10:43 | 48.97177 | 2.14438 | 3676 ft | 203 kts | 229° |
| 2026-04-15 10:43 | 48.96301 | 2.12850 | 3593 ft | 190 kts | 228° |
| 2026-04-15 10:43 | 48.95245 | 2.11647 | 3477 ft | 193 kts | 202° |
| 2026-04-15 10:43 | 48.93913 | 2.11498 | 3379 ft | 197 kts | 169° |
| 2026-04-15 10:44 | 48.92603 | 2.12208 | 3274 ft | 199 kts | 161° |
| 2026-04-15 10:44 | 48.91333 | 2.13020 | 3178 ft | 199 kts | 154° |
| 2026-04-15 10:44 | 48.90268 | 2.14395 | 3063 ft | 205 kts | 130° |
| 2026-04-15 10:44 | 48.89766 | 2.16464 | 3001 ft | 213 kts | 98° |
| 2026-04-15 10:45 | 48.90035 | 2.18632 | 3007 ft | 218 kts | 72° |
| 2026-04-15 10:45 | 48.90628 | 2.20760 | 3009 ft | 217 kts | 69° |
| 2026-04-15 10:45 | 48.91196 | 2.22811 | 2876 ft | 206 kts | 70° |
| 2026-04-15 10:45 | 48.91725 | 2.24755 | 2606 ft | 195 kts | 71° |
| 2026-04-15 10:46 | 48.92241 | 2.26662 | 2362 ft | 189 kts | 70° |
| 2026-04-15 10:46 | 48.92722 | 2.28430 | 2150 ft | 174 kts | 72° |
| 2026-04-15 10:46 | 48.93183 | 2.30138 | 1884 ft | 174 kts | 72° |
| 2026-04-15 10:46 | 48.93626 | 2.31773 | 1678 ft | 157 kts | 70° |
| 2026-04-15 10:47 | 48.94029 | 2.33260 | 1467 ft | 149 kts | 71° |
| 2026-04-15 10:47 | 48.94409 | 2.34675 | 1254 ft | 143 kts | 72° |
| 2026-04-15 10:47 | 48.94793 | 2.36069 | 1087 ft | 140 kts | 73° |
| 2026-04-15 10:47 | 48.95161 | 2.37436 | 884 ft | 137 kts | 72° |
| 2026-04-15 10:48 | 48.95515 | 2.38777 | 711 ft | 137 kts | 73° |
| 2026-04-15 10:48 | 48.95879 | 2.40113 | 534 ft | 138 kts | 72° |
| 2026-04-15 10:48 | 48.96241 | 2.41452 | 343 ft | 137 kts | 72° |
| 2026-04-15 10:48 | 48.96597 | 2.42810 | 173 ft | 133 kts | 72° |
| 2026-04-15 10:49 | 48.96939 | 2.44020 | 248 ft | 129 kts | 72° |
| 2026-04-15 10:49 | 48.97346 | 2.45499 | 633 ft | 178 kts | 71° |
| 2026-04-15 10:49 | 48.97876 | 2.47424 | 1416 ft | 213 kts | 70° |
| 2026-04-15 10:49 | 48.98460 | 2.49521 | 2434 ft | 218 kts | 69° |
| 2026-04-15 10:50 | 48.99062 | 2.51618 | 2913 ft | 213 kts | 68° |
| 2026-04-15 10:50 | 48.99655 | 2.53617 | 3020 ft | 205 kts | 68° |
| 2026-04-15 10:50 | 49.00241 | 2.55565 | 3011 ft | 200 kts | 68° |
| 2026-04-15 10:50 | 49.00817 | 2.57476 | 3004 ft | 198 kts | 67° |
| 2026-04-15 10:51 | 49.01400 | 2.59401 | 3000 ft | 197 kts | 68° |
| 2026-04-15 10:51 | 49.01973 | 2.61283 | 3000 ft | 197 kts | 67° |
| 2026-04-15 10:51 | 49.02438 | 2.63215 | 2995 ft | 194 kts | 81° |
| 2026-04-15 10:51 | 49.02521 | 2.65254 | 2996 ft | 191 kts | 95° |
| 2026-04-15 10:52 | 49.02496 | 2.67284 | 2999 ft | 190 kts | 95° |
| 2026-04-15 10:52 | 49.02467 | 2.69279 | 2999 ft | 190 kts | 95° |
| 2026-04-15 10:52 | 49.02438 | 2.71299 | 2997 ft | 190 kts | 95° |
| 2026-04-15 10:52 | 49.02402 | 2.73321 | 3000 ft | 191 kts | 95° |
| 2026-04-15 10:53 | 49.02366 | 2.75323 | 2991 ft | 190 kts | 95° |
| 2026-04-15 10:53 | 49.02294 | 2.77340 | 3000 ft | 189 kts | 104° |
| 2026-04-15 10:53 | 49.01638 | 2.78960 | 2978 ft | 179 kts | 148° |
| 2026-04-15 10:53 | 49.00470 | 2.79446 | 2996 ft | 176 kts | 178° |
| 2026-04-15 10:54 | 48.99254 | 2.79249 | 2998 ft | 175 kts | 201° |
| 2026-04-15 10:54 | 48.98313 | 2.78118 | 2992 ft | 177 kts | 228° |
| 2026-04-15 10:54 | 48.97519 | 2.76647 | 3012 ft | 178 kts | 229° |
| 2026-04-15 10:54 | 48.96730 | 2.75185 | 3003 ft | 179 kts | 232° |
| 2026-04-15 10:55 | 48.96299 | 2.73416 | 2995 ft | 184 kts | 263° |
| 2026-04-15 10:55 | 48.96365 | 2.71453 | 3003 ft | 186 kts | 272° |
| 2026-04-15 10:55 | 48.96475 | 2.69492 | 3001 ft | 185 kts | 271° |
| 2026-04-15 10:55 | 48.96561 | 2.67551 | 3001 ft | 185 kts | 270° |
| 2026-04-15 10:56 | 48.96645 | 2.65568 | 2853 ft | 189 kts | 270° |
| 2026-04-15 10:56 | 48.96727 | 2.63625 | 2592 ft | 181 kts | 270° |
| 2026-04-15 10:56 | 48.96807 | 2.61678 | 2369 ft | 183 kts | 270° |
| 2026-04-15 10:56 | 48.96886 | 2.59801 | 2133 ft | 171 kts | 270° |
| 2026-04-15 10:57 | 48.96961 | 2.58043 | 1918 ft | 165 kts | 269° |
| 2026-04-15 10:57 | 48.97079 | 2.54880 | 1452 ft | 141 kts | 264° |
| 2026-04-15 10:57 | 48.97046 | 2.53398 | 1329 ft | 141 kts | 262° |
| 2026-04-15 10:58 | 48.97107 | 2.51876 | 1170 ft | 147 kts | 280° |
| 2026-04-15 10:58 | 48.97454 | 2.50494 | 973 ft | 132 kts | 285° |
| 2026-04-15 10:58 | 48.97718 | 2.49167 | 801 ft | 133 kts | 275° |
| 2026-04-15 10:58 | 48.97749 | 2.47772 | 631 ft | 135 kts | 259° |
| 2026-04-15 10:59 | 48.97536 | 2.46392 | 480 ft | 131 kts | 248° |
| 2026-04-15 10:59 | 48.97216 | 2.45129 | 278 ft | 123 kts | 243° |
| 2026-04-15 10:59 | 48.96915 | 2.44007 | 180 ft | 105 kts | 244° |
| 2026-04-15 10:59 | 48.96692 | 2.43178 | 167 ft | 56 kts | 248° |
| 2026-04-15 11:00 | 48.96583 | 2.42767 | 163 ft | 40 kts | 248° |
| 2026-04-15 11:00 | 48.96495 | 2.42489 | 161 ft | 13 kts | 213° |
| 2026-04-15 11:00 | 48.96391 | 2.42467 | 160 ft | 15 kts | 166° |
| 2026-04-15 11:00 | 48.96281 | 2.42518 | 159 ft | 16 kts | 144° |
| 2026-04-15 11:01 | 48.96204 | 2.42659 | 158 ft | 19 kts | 129° |
| 2026-04-15 11:01 | 48.96110 | 2.42838 | 155 ft | 23 kts | 129° |
| 2026-04-15 11:01 | 48.95995 | 2.43058 | 150 ft | 28 kts | 129° |
| 2026-04-15 11:01 | 48.95897 | 2.43329 | 148 ft | 29 kts | 115° |
| 2026-04-15 11:02 | 48.95811 | 2.43617 | 147 ft | 23 kts | 115° |
| 2026-04-15 11:02 | 48.95731 | 2.43666 | 147 ft | 15 kts | 204° |
| 2026-04-15 11:02 | 48.95621 | 2.43590 | 146 ft | 18 kts | 202° |
| 2026-04-15 11:02 | 48.95495 | 2.43501 | 145 ft | 21 kts | 205° |
| 2026-04-15 11:03 | 48.95356 | 2.43402 | 146 ft | 22 kts | 205° |
| 2026-04-15 11:03 | 48.95227 | 2.43323 | 148 ft | 12 kts | 170° |
| 2026-04-15 11:03 | 48.95173 | 2.43437 | 148 ft | 15 kts | 116° |
| 2026-04-15 11:03 | 48.95138 | 2.43550 | 148 ft | 6 kts | 129° |
| 2026-04-15 11:04 | 48.95089 | 2.43584 | 148 ft | 9 kts | 201° |
| 2026-04-15 11:04 | 48.95018 | 2.43562 | 149 ft | 11 kts | 153° |
| 2026-04-15 11:04 | 48.94989 | 2.43654 | 149 ft | 8 kts | 36° |
| 2026-04-15 11:04 | 48.95022 | 2.43632 | 149 ft | 0 kts | 301° |